Time;durP1;ratioP1;P1;durP2;ratioP2;P2;SDS_P1;SDS_P2;PMS_P1;PMS_P2;Temp;Humidity;BMP_temperature;BMP_pressure;BME280_temperature;BME280_humidity;BME280_pressure;Samples;Min_cycle;Max_cycle;Signal;HPM_P1;HPM_P2
2022/03/23 00:01:59;;;;;;;67.32;46.83;;;;;;;;;;5109895;28;20044;-62
2022/03/23 00:04:25;;;;;;;73.95;48.33;;;7.10;99.90;;;;;;5115102;28;20036;-62
2022/03/23 00:06:51;;;;;;;69.72;46.15;;;7.00;99.90;;;;;;5115824;28;20042;-62
2022/03/23 00:09:17;;;;;;;63.53;44.80;;;;;;;;;;5113626;28;20035;-62
2022/03/23 00:11:42;;;;;;;68.35;46.08;;;7.20;99.90;;;;;;5115526;28;20039;-62
2022/03/23 00:14:09;;;;;;;64.38;43.00;;;7.20;99.90;;;;;;5114631;28;20031;-62
2022/03/23 00:16:36;;;;;;;60.60;42.10;;;7.00;99.90;;;;;;5115171;28;20123;-62
2022/03/23 00:19:06;;;;;;;67.03;45.08;;;7.10;99.90;;;;;;5115578;28;20054;-62
2022/03/23 00:21:31;;;;;;;66.65;45.28;;;6.90;99.90;;;;;;5115838;28;20443;-62
2022/03/23 00:23:57;;;;;;;64.38;42.92;;;6.90;99.90;;;;;;5113470;28;20111;-62
2022/03/23 00:26:23;;;;;;;66.88;43.58;;;7.20;99.90;;;;;;5096993;28;20039;-62
2022/03/23 00:28:49;;;;;;;62.53;42.75;;;6.90;99.90;;;;;;5115559;27;20043;-62
2022/03/23 00:31:15;;;;;;;67.22;42.70;;;7.00;99.90;;;;;;5096247;28;20075;-62
2022/03/23 00:33:40;;;;;;;60.78;43.42;;;7.20;99.90;;;;;;5113968;28;20092;-62
2022/03/23 00:36:09;;;;;;;68.70;45.55;;;6.90;99.90;;;;;;5115446;28;20396;-62
2022/03/23 00:38:35;;;;;;;65.85;44.47;;;7.00;99.90;;;;;;5114606;28;20050;-62
2022/03/23 00:41:03;;;;;;;64.55;42.70;;;6.50;99.90;;;;;;5113990;28;20047;-62
2022/03/23 00:43:29;;;;;;;64.75;44.50;;;6.90;99.90;;;;;;5096781;28;20039;-62
2022/03/23 00:45:55;;;;;;;63.30;42.47;;;6.70;99.90;;;;;;5114397;28;20123;-62
2022/03/23 00:48:20;;;;;;;71.60;47.30;;;6.90;99.90;;;;;;5114983;28;20040;-62
2022/03/23 00:50:46;;;;;;;68.13;46.92;;;6.50;99.90;;;;;;5114965;27;20050;-62
2022/03/23 00:53:12;;;;;;;63.05;44.38;;;7.40;99.90;;;;;;5113861;28;20043;-62
2022/03/23 00:55:40;;;;;;;65.63;44.05;;;6.70;99.90;;;;;;5114019;28;20051;-62
2022/03/23 00:58:06;;;;;;;72.20;44.15;;;6.70;99.90;;;;;;5114073;28;20048;-62
2022/03/23 01:00:31;;;;;;;64.30;42.95;;;7.10;99.90;;;;;;5114045;28;20402;-62
2022/03/23 01:02:57;;;;;;;63.13;43.65;;;6.60;99.90;;;;;;5114724;28;20036;-62
2022/03/23 01:05:26;;;;;;;69.55;45.20;;;6.50;99.90;;;;;;5113839;28;20031;-62
2022/03/23 01:07:52;;;;;;;67.65;46.25;;;6.70;99.90;;;;;;5113203;28;20111;-62
2022/03/23 01:10:20;;;;;;;69.25;46.80;;;6.50;99.90;;;;;;5114502;28;20114;-62
2022/03/23 01:12:46;;;;;;;66.70;46.38;;;7.10;99.90;;;;;;5113837;28;20642;-62
2022/03/23 01:15:15;;;;;;;63.08;44.88;;;7.00;99.90;;;;;;5112921;28;20071;-62
2022/03/23 01:17:40;;;;;;;71.15;47.20;;;6.40;99.90;;;;;;5114451;28;20045;-62
2022/03/23 01:20:09;;;;;;;63.72;43.97;;;6.70;99.90;;;;;;5113816;27;20126;-62
2022/03/23 01:22:36;;;;;;;67.57;44.45;;;6.60;99.90;;;;;;5114401;28;20038;-62
2022/03/23 01:25:03;;;;;;;71.63;47.53;;;6.70;99.90;;;;;;5113089;28;20044;-62
2022/03/23 01:27:29;;;;;;;73.20;48.53;;;6.50;99.90;;;;;;5112498;28;20392;-62
2022/03/23 01:29:55;;;;;;;73.85;48.45;;;6.20;99.90;;;;;;5113061;28;20051;-62
2022/03/23 01:32:20;;;;;;;67.15;46.38;;;6.80;99.90;;;;;;5114116;28;20100;-62
2022/03/23 01:34:46;;;;;;;76.80;48.75;;;6.70;99.90;;;;;;5113244;28;20039;-62
2022/03/23 01:37:12;;;;;;;69.63;48.63;;;6.30;99.90;;;;;;5112579;28;20126;-62
2022/03/23 01:39:37;;;;;;;69.57;47.63;;;6.50;99.90;;;;;;5113224;28;20036;-62
2022/03/23 01:42:03;;;;;;;65.50;47.33;;;6.50;99.90;;;;;;5111974;28;20144;-62
2022/03/23 01:44:29;;;;;;;72.80;47.22;;;6.40;99.90;;;;;;5113941;27;20377;-62
2022/03/23 01:47:12;;;;;;;67.82;48.00;;;6.50;99.90;;;;;;5113795;28;20028;-62
2022/03/23 01:49:47;;;;;;;76.32;51.00;;;6.30;99.90;;;;;;5113086;28;20043;-62
2022/03/23 01:52:15;;;;;;;73.65;51.78;;;6.40;99.90;;;;;;5112610;28;20100;-62
2022/03/23 01:54:42;;;;;;;82.78;53.10;;;6.30;99.90;;;;;;5111479;28;20412;-62
2022/03/23 01:57:10;;;;;;;83.97;54.10;;;6.50;99.90;;;;;;5112392;28;20126;-62
2022/03/23 01:59:37;;;;;;;78.55;51.63;;;7.40;99.90;;;;;;5112527;28;20506;-62
2022/03/23 02:02:03;;;;;;;80.22;51.67;;;6.30;99.90;;;;;;5112778;28;20118;-62
2022/03/23 02:04:29;;;;;;;74.63;50.42;;;6.30;99.90;;;;;;5113588;28;20031;-62
2022/03/23 02:06:55;;;;;;;71.45;49.90;;;6.40;99.90;;;;;;5112299;28;20081;-62
2022/03/23 02:09:20;;;;;;;72.00;49.88;;;6.10;99.90;;;;;;5112735;28;20043;-62
2022/03/23 02:11:49;;;;;;;76.22;50.33;;;6.40;99.90;;;;;;5113324;28;20036;-62
2022/03/23 02:14:14;;;;;;;67.03;45.40;;;6.20;99.90;;;;;;5113255;28;20114;-62
2022/03/23 02:16:50;;;;;;;70.55;47.47;;;6.10;99.90;;;;;;5112333;28;20123;-62
2022/03/23 02:19:16;;;;;;;;;;;6.10;99.90;;;;;;5113693;28;20072;-62
2022/03/23 02:21:43;;;;;;;72.90;48.40;;;5.70;99.90;;;;;;5113308;28;19915;-62
2022/03/23 02:24:09;;;;;;;76.93;50.50;;;6.00;99.90;;;;;;5112354;28;20043;-62
2022/03/23 02:26:35;;;;;;;68.90;45.15;;;6.00;99.90;;;;;;5111458;28;20031;-62
2022/03/23 02:29:01;;;;;;;78.70;49.33;;;6.50;99.90;;;;;;5112927;28;20122;-62
2022/03/23 02:31:27;;;;;;;66.75;43.63;;;6.00;99.90;;;;;;5112093;28;20122;-62
2022/03/23 02:33:53;;;;;;;62.75;41.80;;;6.10;99.90;;;;;;5111685;28;20054;-62
2022/03/23 02:36:19;;;;;;;63.40;42.90;;;5.60;99.90;;;;;;5112877;28;20078;-62
2022/03/23 02:38:44;;;;;;;65.80;43.92;;;6.20;99.90;;;;;;5110648;28;20075;-62
2022/03/23 02:41:11;;;;;;;58.30;40.90;;;6.30;99.90;;;;;;5111600;28;20118;-62
2022/03/23 02:43:36;;;;;;;56.83;39.67;;;5.60;99.90;;;;;;5111983;28;20136;-62
2022/03/23 02:46:02;;;;;;;59.60;39.63;;;5.80;99.90;;;;;;5111944;28;20081;-62
2022/03/23 02:48:29;;;;;;;54.33;38.28;;;5.70;99.90;;;;;;5112940;28;20395;-62
2022/03/23 02:50:55;;;;;;;54.70;39.25;;;6.00;99.90;;;;;;5112075;28;20040;-62
2022/03/23 03:01:54;;;;;;;81.93;49.88;;;5.70;99.90;;;;;;5113017;28;20051;-62
2022/03/23 03:04:21;;;;;;;68.80;45.10;;;5.40;99.90;;;;;;5112624;28;20503;-62
2022/03/23 03:06:51;;;;;;;69.57;45.38;;;5.50;99.90;;;;;;5093308;28;20114;-62
2022/03/23 03:09:19;;;;;;;64.82;43.30;;;5.40;99.90;;;;;;5112676;28;20463;-62
2022/03/23 03:11:45;;;;;;;64.63;45.60;;;5.90;99.90;;;;;;5111076;28;20484;-62
2022/03/23 03:14:11;;;;;;;76.05;51.40;;;5.60;99.90;;;;;;5111896;28;20097;-62
2022/03/23 03:16:37;;;;;;;60.83;40.53;;;5.50;99.90;;;;;;5111568;28;20480;-62
2022/03/23 03:19:10;;;;;;;61.45;41.30;;;5.50;99.90;;;;;;5110186;28;20047;-62
2022/03/23 03:21:36;;;;;;;63.90;41.40;;;5.50;99.90;;;;;;5112855;28;20036;-62
2022/03/23 03:24:02;;;;;;;55.78;40.00;;;5.50;99.90;;;;;;5111410;28;20046;-62
2022/03/23 03:26:30;;;;;;;57.08;39.92;;;5.40;99.90;;;;;;5110012;28;20039;-62
2022/03/23 03:28:56;;;;;;;51.80;37.40;;;5.40;99.90;;;;;;5112380;28;20047;-62
2022/03/23 03:31:22;;;;;;;57.58;39.47;;;5.60;99.90;;;;;;5111173;28;20103;-62
2022/03/23 03:33:48;;;;;;;58.20;40.08;;;5.60;99.90;;;;;;5111398;28;20039;-62
2022/03/23 03:36:15;;;;;;;52.30;37.85;;;5.70;99.90;;;;;;5112223;28;20071;-62
2022/03/23 03:38:42;;;;;;;55.58;35.85;;;5.70;99.90;;;;;;5116132;28;20495;-62
2022/03/23 03:41:09;;;;;;;59.38;40.08;;;5.10;99.90;;;;;;5115405;28;20036;-62
2022/03/23 03:43:35;;;;;;;59.65;39.50;;;5.60;99.90;;;;;;5098587;28;20067;-62
2022/03/23 03:46:01;;;;;;;57.83;38.63;;;5.30;99.90;;;;;;5115053;28;20132;-62
2022/03/23 03:48:28;;;;;;;61.35;40.42;;;5.00;99.90;;;;;;5114334;28;20055;-62
2022/03/23 03:50:54;;;;;;;51.38;37.15;;;5.10;99.90;;;;;;5098171;28;20043;-62
2022/03/23 03:53:19;;;;;;;49.15;34.80;;;5.20;99.90;;;;;;5115861;28;20036;-62
2022/03/23 03:55:45;;;;;;;53.45;38.13;;;5.20;99.90;;;;;;5115210;28;20039;-62
2022/03/23 03:58:12;;;;;;;47.50;35.05;;;5.10;99.90;;;;;;5115924;28;20046;-62
2022/03/23 04:00:39;;;;;;;50.70;37.45;;;5.20;99.90;;;;;;5116201;28;20031;-62
2022/03/23 04:03:04;;;;;;;47.92;33.75;;;4.80;99.90;;;;;;5115035;28;20100;-62
2022/03/23 04:05:30;;;;;;;48.38;33.47;;;5.00;99.90;;;;;;5115980;27;20035;-62
2022/03/23 04:07:56;;;;;;;49.15;32.40;;;5.20;99.90;;;;;;5114428;28;20116;-62
2022/03/23 04:10:23;;;;;;;46.28;32.67;;;5.10;99.90;;;;;;5115059;28;20378;-62
2022/03/23 04:12:49;;;;;;;44.95;32.67;;;4.70;99.90;;;;;;5115618;28;20123;-62
2022/03/23 04:15:15;;;;;;;45.72;32.00;;;5.10;99.90;;;;;;5114860;27;20075;-62
2022/03/23 04:17:41;;;;;;;42.08;29.80;;;4.60;99.90;;;;;;5114208;28;20044;-62
2022/03/23 04:20:10;;;;;;;41.20;31.85;;;4.80;99.90;;;;;;5114238;28;20044;-62
2022/03/23 04:22:38;;;;;;;45.60;31.30;;;5.00;99.90;;;;;;5115131;27;20050;-62
2022/03/23 04:25:08;;;;;;;42.38;32.78;;;4.90;99.90;;;;;;5115415;28;20035;-62
2022/03/23 04:27:34;;;;;;;43.25;33.50;;;4.60;99.90;;;;;;5109587;28;20051;-62
2022/03/23 04:30:01;;;;;;;42.58;31.77;;;5.20;99.90;;;;;;5103177;28;20048;-62
2022/03/23 04:32:26;;;;;;;42.53;31.30;;;4.40;99.90;;;;;;5095176;28;20495;-62
2022/03/23 04:34:52;;;;;;;41.00;31.00;;;4.50;99.90;;;;;;5077800;28;20044;-62
2022/03/23 04:37:18;;;;;;;42.17;31.90;;;5.20;99.90;;;;;;5094100;28;20035;-62
2022/03/23 04:39:43;;;;;;;45.03;32.10;;;4.80;99.90;;;;;;5108573;28;20044;-62
2022/03/23 04:42:09;;;;;;;40.13;29.08;;;5.10;99.90;;;;;;5115085;28;20396;-62
2022/03/23 04:44:35;;;;;;;41.67;30.70;;;4.60;99.90;;;;;;5094623;28;20040;-62
2022/03/23 04:47:00;;;;;;;39.88;30.85;;;4.80;99.90;;;;;;5093677;28;20127;-62
2022/03/23 04:49:26;;;;;;;40.33;30.42;;;4.60;99.90;;;;;;5093830;28;20487;-62
2022/03/23 04:51:52;;;;;;;44.28;33.00;;;4.60;99.90;;;;;;5093715;28;20036;-62
2022/03/23 04:54:17;;;;;;;39.67;29.80;;;4.60;99.90;;;;;;5094264;28;20055;-62
2022/03/23 04:56:43;;;;;;;43.20;33.05;;;4.60;99.90;;;;;;5093120;28;20473;-62
2022/03/23 04:59:09;;;;;;;39.38;29.33;;;4.60;99.90;;;;;;5093226;28;20054;-62
2022/03/23 05:01:34;;;;;;;44.03;31.90;;;4.60;99.90;;;;;;5076438;28;20093;-62
2022/03/23 05:04:00;;;;;;;39.92;30.95;;;4.60;99.90;;;;;;5094318;28;20097;-62
2022/03/23 05:06:26;;;;;;;42.38;31.98;;;4.60;99.90;;;;;;5092184;28;20040;-62
2022/03/23 05:08:51;;;;;;;47.05;34.53;;;4.60;99.90;;;;;;5094263;28;20572;-62
2022/03/23 05:11:17;;;;;;;45.30;34.70;;;4.60;99.90;;;;;;5093048;28;20032;-62
2022/03/23 05:13:42;;;;;;;51.65;39.10;;;4.60;99.90;;;;;;5108631;28;20495;-62
2022/03/23 05:16:08;;;;;;;42.72;32.33;;;4.60;99.90;;;;;;5114469;28;20048;-62
2022/03/23 05:18:34;;;;;;;40.95;31.45;;;4.60;99.90;;;;;;5095698;28;20395;-62
2022/03/23 05:20:59;;;;;;;45.55;34.40;;;4.60;99.90;;;;;;5113052;28;20195;-62
2022/03/23 05:23:25;;;;;;;45.67;34.50;;;4.60;99.90;;;;;;5114491;28;20103;-62
2022/03/23 05:25:50;;;;;;;43.63;33.95;;;4.50;99.90;;;;;;5112261;28;20039;-62
2022/03/23 05:28:16;;;;;;;44.55;33.60;;;4.50;99.90;;;;;;5098496;28;20120;-62
2022/03/23 05:30:42;;;;;;;42.22;31.88;;;4.50;99.90;;;;;;5092472;28;20094;-62
2022/03/23 05:33:07;;;;;;;44.13;32.60;;;4.50;99.90;;;;;;5093122;28;20036;-62
2022/03/23 05:35:33;;;;;;;42.50;31.95;;;4.50;99.90;;;;;;5113540;28;20036;-62
2022/03/23 05:37:58;;;;;;;39.67;30.70;;;4.50;99.90;;;;;;5113882;28;20035;-62
2022/03/23 05:40:24;;;;;;;42.10;33.53;;;4.50;99.90;;;;;;5113186;28;20036;-62
2022/03/23 05:42:51;;;;;;;39.65;30.88;;;4.40;99.90;;;;;;5102286;28;20473;-62
2022/03/23 05:45:16;;;;;;;42.30;32.65;;;4.40;99.90;;;;;;5093604;28;20044;-62
2022/03/23 05:47:43;;;;;;;38.58;31.70;;;4.40;99.90;;;;;;5092649;28;20039;-62
2022/03/23 05:50:10;;;;;;;47.95;35.33;;;4.40;99.90;;;;;;5093327;28;20071;-62
2022/03/23 05:52:37;;;;;;;41.72;33.58;;;4.40;99.90;;;;;;5092264;28;20063;-62
2022/03/23 05:55:05;;;;;;;43.13;33.13;;;4.40;99.90;;;;;;5092170;28;20067;-62
2022/03/23 05:57:31;;;;;;;43.80;33.33;;;4.40;99.90;;;;;;5092043;28;20100;-62
2022/03/23 05:59:57;;;;;;;40.55;30.65;;;4.40;99.90;;;;;;5092757;28;20502;-62
2022/03/23 06:02:23;;;;;;;43.50;32.63;;;4.40;99.90;;;;;;5097195;28;20468;-62
2022/03/23 06:04:48;;;;;;;42.90;31.38;;;4.40;99.90;;;;;;5112334;28;20519;-62
2022/03/23 06:07:14;;;;;;;49.47;35.92;;;4.40;99.90;;;;;;5113458;28;20040;-62
2022/03/23 06:09:39;;;;;;;44.47;34.33;;;4.50;99.90;;;;;;5112541;28;20039;-62
2022/03/23 06:12:07;;;;;;;45.33;34.38;;;4.50;99.90;;;;;;5113239;28;20040;-62
2022/03/23 06:14:34;;;;;;;46.83;35.05;;;4.50;99.90;;;;;;5113404;27;20044;-62
2022/03/23 06:16:59;;;;;;;50.05;36.60;;;4.50;99.90;;;;;;5112575;28;20453;-62
2022/03/23 06:19:25;;;;;;;45.42;34.22;;;4.60;99.90;;;;;;5112027;28;20043;-62
2022/03/23 06:21:51;;;;;;;44.22;34.20;;;4.60;99.90;;;;;;5112496;28;20407;-62
2022/03/23 06:24:16;;;;;;;47.50;35.17;;;4.60;99.90;;;;;;5113150;28;20063;-63
2022/03/23 06:26:42;;;;;;;46.15;34.90;;;4.70;99.90;;;;;;5112663;28;20039;-62
2022/03/23 06:29:08;;;;;;;50.97;37.28;;;4.70;99.90;;;;;;5112468;28;20467;-62
2022/03/23 06:31:33;;;;;;;53.63;39.53;;;4.70;99.90;;;;;;5113545;28;20044;-62
2022/03/23 06:34:00;;;;;;;77.32;56.15;;;4.80;99.90;;;;;;5103996;28;20052;-62
2022/03/23 06:36:26;;;;;;;73.18;51.20;;;4.90;99.90;;;;;;5090665;28;20176;-62
2022/03/23 06:38:51;;;;;;;80.65;55.20;;;5.10;99.90;;;;;;5092497;28;20036;-62
2022/03/23 06:41:17;;;;;;;78.88;54.35;;;5.30;99.90;;;;;;5091275;28;20036;-62
2022/03/23 06:43:43;;;;;;;89.10;57.08;;;5.40;99.90;;;;;;5073691;28;20490;-62
2022/03/23 06:46:09;;;;;;;84.32;56.97;;;5.50;99.90;;;;;;5092485;28;20067;-62
2022/03/23 06:48:35;;;;;;;82.75;55.60;;;5.60;99.90;;;;;;5105072;28;20070;-62
2022/03/23 06:51:01;;;;;;;78.45;54.25;;;5.80;99.90;;;;;;5112049;28;20399;-62
2022/03/23 06:53:26;;;;;;;79.30;53.15;;;5.90;99.90;;;;;;5094361;28;20063;-62
2022/03/23 06:55:52;;;;;;;83.88;55.17;;;6.00;99.90;;;;;;5112257;28;20123;-62
2022/03/23 06:58:18;;;;;;;80.97;55.33;;;6.10;99.90;;;;;;5111751;28;20065;-62
2022/03/23 07:00:44;;;;;;;84.97;55.53;;;6.20;99.90;;;;;;5110839;28;20047;-62
2022/03/23 07:03:10;;;;;;;88.13;57.35;;;6.40;99.90;;;;;;5096455;28;20027;-62
2022/03/23 07:05:36;;;;;;;88.78;58.25;;;6.50;99.90;;;;;;5107991;28;20035;-62
2022/03/23 07:10:48;;;;;;;;;;;;;;;;;;5103257;28;20035;-63
2022/03/23 07:13:14;;;;;;;81.68;53.35;;;6.80;99.90;;;;;;5111145;28;19947;-63
2022/03/23 07:15:42;;;;;;;81.47;56.30;;;6.90;99.90;;;;;;5112684;28;20039;-63
2022/03/23 07:18:10;;;;;;;81.80;54.45;;;7.00;99.90;;;;;;5111263;28;20039;-62
2022/03/23 07:20:36;;;;;;;77.15;53.38;;;7.20;99.90;;;;;;5112530;28;20079;-63
2022/03/23 07:23:02;;;;;;;76.13;54.30;;;7.30;99.90;;;;;;5094268;28;20046;-63
2022/03/23 07:25:28;;;;;;;70.32;50.83;;;7.40;99.90;;;;;;5102932;28;20036;-63
2022/03/23 07:27:53;;;;;;;75.97;52.08;;;7.50;99.90;;;;;;5111780;28;20036;-63
2022/03/23 07:30:20;;;;;;;77.93;54.05;;;7.60;99.90;;;;;;5110701;28;20055;-65
2022/03/23 07:32:45;;;;;;;77.45;54.00;;;7.70;99.90;;;;;;5111642;28;20434;-63
2022/03/23 07:35:11;;;;;;;76.63;52.00;;;7.80;99.90;;;;;;5111321;28;20044;-63
2022/03/23 07:37:37;;;;;;;68.85;49.55;;;;;;;;;;5112610;28;20035;-62
2022/03/23 07:40:04;;;;;;;70.78;48.97;;;8.10;99.90;;;;;;5096189;28;20346;-62
2022/03/23 07:42:29;;;;;;;69.95;47.28;;;8.20;99.90;;;;;;5096397;28;20079;-62
2022/03/23 07:44:56;;;;;;;75.65;50.13;;;8.30;99.90;;;;;;5092684;28;20500;-62
2022/03/23 07:47:22;;;;;;;61.58;41.55;;;8.50;99.90;;;;;;5111611;28;20047;-64
2022/03/23 07:49:47;;;;;;;63.85;46.15;;;9.40;99.90;;;;;;5102988;28;20400;-63
2022/03/23 07:52:13;;;;;;;61.60;44.30;;;8.70;99.90;;;;;;5102841;28;20445;-63
2022/03/23 07:54:39;;;;;;;63.90;44.15;;;8.80;99.90;;;;;;5110225;28;20054;-63
2022/03/23 07:57:05;;;;;;;61.30;44.42;;;9.00;99.90;;;;;;5092202;28;20484;-63
2022/03/23 07:59:31;;;;;;;64.90;44.63;;;9.10;99.90;;;;;;5097252;28;20040;-63
2022/03/23 08:01:57;;;;;;;58.10;43.10;;;9.20;99.90;;;;;;5103338;28;20051;-63
2022/03/23 08:04:22;;;;;;;63.08;44.95;;;9.30;99.90;;;;;;5098213;28;20039;-63
2022/03/23 08:06:48;;;;;;;57.40;41.72;;;9.50;99.90;;;;;;5103307;28;20089;-63
2022/03/23 08:09:13;;;;;;;55.28;39.97;;;9.60;99.90;;;;;;5108688;28;20075;-63
2022/03/23 08:11:39;;;;;;;54.28;40.95;;;9.70;99.90;;;;;;5109643;28;20385;-63
2022/03/23 08:14:05;;;;;;;57.75;40.05;;;;;;;;;;5102842;28;20044;-63
2022/03/23 08:16:30;;;;;;;54.70;39.30;;;10.20;99.90;;;;;;5107450;28;20043;-63
2022/03/23 08:18:56;;;;;;;54.42;40.47;;;10.20;99.90;;;;;;5098127;28;20435;-63
2022/03/23 08:21:23;;;;;;;52.97;38.03;;;10.40;99.90;;;;;;5108151;28;20635;-62
2022/03/23 08:23:49;;;;;;;54.20;39.03;;;10.40;99.90;;;;;;5110214;28;20050;-63
2022/03/23 08:26:16;;;;;;;55.25;38.50;;;10.60;99.90;;;;;;5111998;28;20038;-63
2022/03/23 08:28:43;;;;;;;46.65;32.83;;;10.80;99.90;;;;;;5112534;28;20043;-63
2022/03/23 08:31:10;;;;;;;51.97;34.70;;;10.80;99.90;;;;;;5110918;28;20052;-63
2022/03/23 08:33:37;;;;;;;50.83;36.63;;;11.10;99.90;;;;;;5113248;28;20051;-63
2022/03/23 08:36:04;;;;;;;47.20;32.97;;;10.90;99.90;;;;;;5093965;28;20044;-63
2022/03/23 08:38:29;;;;;;;50.17;36.30;;;11.20;99.90;;;;;;5092624;28;20043;-63
2022/03/23 08:40:55;;;;;;;49.58;36.83;;;12.00;99.90;;;;;;5091206;28;20062;-63
2022/03/23 08:43:21;;;;;;;47.88;34.92;;;11.40;99.90;;;;;;5090502;28;20095;-62
2022/03/23 08:45:47;;;;;;;50.33;33.58;;;11.50;99.90;;;;;;5100697;28;20058;-63
2022/03/23 08:48:13;;;;;;;46.10;34.97;;;11.80;99.90;;;;;;5111420;28;20051;-63
2022/03/23 08:50:40;;;;;;;50.03;33.47;;;11.80;99.90;;;;;;5096006;28;20052;-63
2022/03/23 08:53:06;;;;;;;43.90;31.30;;;11.90;99.90;;;;;;5092724;28;20422;-63
2022/03/23 08:55:32;;;;;;;46.72;31.83;;;12.10;99.90;;;;;;5105463;28;20510;-63
2022/03/23 08:57:58;;;;;;;45.28;31.55;;;11.90;99.90;;;;;;5110361;28;20040;-62
2022/03/23 09:00:24;;;;;;;41.92;31.48;;;;;;;;;;5099290;28;20044;-62
2022/03/23 09:02:51;;;;;;;41.90;28.75;;;;;;;;;;5098162;28;20112;-62
2022/03/23 09:05:18;;;;;;;41.90;31.15;;;12.40;99.90;;;;;;5098069;28;20105;-62
2022/03/23 09:07:44;;;;;;;46.80;32.55;;;12.40;99.90;;;;;;5096909;28;20479;-63
2022/03/23 09:10:14;;;;;;;45.90;31.00;;;12.60;99.90;;;;;;5092907;28;20080;-62
2022/03/23 09:12:42;;;;;;;44.67;33.65;;;12.60;99.90;;;;;;5089677;28;20052;-62
2022/03/23 09:15:10;;;;;;;39.70;29.77;;;12.80;99.90;;;;;;5096599;28;20039;-62
2022/03/23 09:17:36;;;;;;;41.53;29.13;;;12.80;99.90;;;;;;5093632;28;20130;-62
2022/03/23 09:20:04;;;;;;;40.65;27.73;;;12.80;99.90;;;;;;5103714;28;20039;-62
2022/03/23 09:22:34;;;;;;;42.08;27.27;;;12.90;99.90;;;;;;5096856;28;20473;-63
2022/03/23 09:25:01;;;;;;;36.75;26.25;;;13.00;99.90;;;;;;5104821;28;20048;-62
2022/03/23 09:27:26;;;;;;;36.63;26.15;;;13.00;99.90;;;;;;5104058;28;20040;-62
2022/03/23 09:29:52;;;;;;;44.72;29.77;;;13.10;99.90;;;;;;5092506;28;20055;-62
2022/03/23 09:32:18;;;;;;;40.50;28.95;;;;;;;;;;5106531;28;20135;-62
2022/03/23 09:34:45;;;;;;;42.38;30.88;;;;;;;;;;5103697;28;20040;-63
2022/03/23 09:39:56;;;;;;;41.33;27.17;;;13.40;99.90;;;;;;5097861;28;20048;-63
2022/03/23 09:42:23;;;;;;;34.78;24.92;;;13.60;99.90;;;;;;5106267;28;20127;-63
2022/03/23 09:44:52;;;;;;;36.05;24.40;;;13.50;99.90;;;;;;5101361;28;20043;-63
2022/03/23 09:47:17;;;;;;;37.38;23.02;;;13.70;99.90;;;;;;5109523;28;20422;-63
2022/03/23 09:49:43;;;;;;;36.80;26.58;;;13.80;99.90;;;;;;5104888;28;20036;-64
2022/03/23 09:52:09;;;;;;;32.70;24.60;;;13.90;99.90;;;;;;5108590;28;20063;-62
2022/03/23 09:54:35;;;;;;;37.33;26.95;;;13.90;99.90;;;;;;5095045;28;20413;-63
2022/03/23 09:57:01;;;;;;;40.30;27.42;;;14.00;99.90;;;;;;5089211;28;20054;-63
2022/03/23 09:59:26;;;;;;;38.30;26.77;;;14.20;99.90;;;;;;5095907;28;20047;-63
2022/03/23 10:01:58;;;;;;;36.58;26.40;;;14.10;99.90;;;;;;5093604;28;20084;-63
2022/03/23 10:04:46;;;;;;;;;;;13.90;99.90;;;;;;5095027;28;20365;-63
2022/03/23 10:07:38;;;;;;;36.40;25.77;;;13.90;99.90;;;;;;5099554;28;19927;-63
2022/03/23 10:10:19;;;;;;;35.95;25.55;;;14.00;99.90;;;;;;5077263;28;20032;-63
2022/03/23 10:13:33;;;;;;;38.17;24.50;;;14.20;99.90;;;;;;5107624;28;20035;-63
2022/03/23 10:16:16;;;;;;;35.85;24.48;;;14.30;99.90;;;;;;5074606;28;20148;-63
2022/03/23 10:18:59;;;;;;;32.25;24.55;;;14.30;99.90;;;;;;5109703;28;20043;-63
2022/03/23 10:21:35;;;;;;;33.50;22.60;;;14.40;99.90;;;;;;5108632;28;20040;-63
2022/03/23 10:24:01;;;;;;;37.95;26.98;;;14.50;99.90;;;;;;5109666;28;20051;-63
2022/03/23 10:26:30;;;;;;;36.05;25.02;;;14.60;99.90;;;;;;5109439;28;20042;-63
2022/03/23 10:28:57;;;;;;;38.30;24.67;;;14.70;99.90;;;;;;5110114;28;20056;-63
2022/03/23 10:31:26;;;;;;;32.45;22.58;;;14.70;99.90;;;;;;5091325;28;20397;-63
2022/03/23 10:34:08;;;;;;;30.77;22.75;;;14.70;99.90;;;;;;5089340;28;20559;-63
2022/03/23 10:36:57;;;;;;;34.05;23.35;;;14.80;99.90;;;;;;5089621;28;20044;-62
2022/03/23 10:39:29;;;;;;;31.42;23.60;;;14.80;99.90;;;;;;5094170;28;20047;-62
2022/03/23 10:41:59;;;;;;;30.52;22.20;;;14.90;99.10;;;;;;5090331;28;20119;-62
2022/03/23 10:44:26;;;;;;;31.23;21.85;;;15.00;98.50;;;;;;5089205;28;20040;-62
2022/03/23 10:46:53;;;;;;;31.30;21.10;;;15.10;98.70;;;;;;5088514;28;20043;-63
2022/03/23 10:49:31;;;;;;;27.25;20.23;;;15.20;94.30;;;;;;5089395;28;20048;-62
2022/03/23 10:52:16;;;;;;;26.08;17.90;;;15.20;92.10;;;;;;5091591;28;20439;-62
2022/03/23 10:55:03;;;;;;;23.02;18.15;;;15.20;85.00;;;;;;5095866;28;20140;-62
2022/03/23 10:57:43;;;;;;;29.20;19.08;;;15.20;87.40;;;;;;5111967;28;20046;-62
2022/03/23 11:00:14;;;;;;;28.27;18.23;;;15.20;90.00;;;;;;5110242;28;20036;-62
2022/03/23 11:02:47;;;;;;;29.23;20.13;;;15.40;89.80;;;;;;5093943;28;20024;-62
2022/03/23 11:05:34;;;;;;;27.67;20.58;;;15.60;91.40;;;;;;5091646;28;20043;-62
2022/03/23 11:08:32;;;;;;;26.38;18.88;;;15.70;87.00;;;;;;5092591;28;20075;-62
2022/03/23 11:15:46;;;;;;;24.83;18.73;;;15.80;86.50;;;;;;5090971;28;20112;-63
2022/03/23 11:16:47;;;;;;;26.63;19.60;;;15.90;86.00;;;;;;5109572;28;20051;-62
2022/03/23 11:19:14;;;;;;;24.83;17.55;;;16.00;82.50;;;;;;5103606;28;20040;-62
2022/03/23 11:21:57;;;;;;;29.80;19.35;;;16.10;85.00;;;;;;5110485;28;20031;-62
2022/03/23 11:24:23;;;;;;;27.98;19.05;;;16.20;87.30;;;;;;5111076;28;20547;-63
2022/03/23 11:26:50;;;;;;;27.10;19.52;;;16.30;82.30;;;;;;5112266;28;20043;-62
2022/03/23 11:29:18;;;;;;;23.48;18.67;;;16.40;83.60;;;;;;5112688;28;20047;-62
2022/03/23 11:31:45;;;;;;;24.23;18.92;;;16.40;80.50;;;;;;5110506;28;20157;-62
2022/03/23 11:34:13;;;;;;;26.30;19.40;;;16.50;77.70;;;;;;5111445;28;20039;-62
2022/03/23 11:36:42;;;;;;;28.65;19.58;;;16.50;76.00;;;;;;5110898;28;20039;-62
2022/03/23 11:39:08;;;;;;;27.17;18.50;;;16.40;77.00;;;;;;5111324;28;20043;-62
2022/03/23 11:41:34;;;;;;;28.35;19.55;;;16.40;76.60;;;;;;5112803;28;20031;-62
2022/03/23 11:43:59;;;;;;;24.75;18.08;;;16.40;80.60;;;;;;5094222;28;20044;-62
2022/03/23 11:46:26;;;;;;;27.50;19.42;;;16.60;76.60;;;;;;5091797;28;20659;-62
2022/03/23 11:49:00;;;;;;;31.45;18.42;;;16.70;72.30;;;;;;5080684;28;20496;-62
2022/03/23 11:51:42;;;;;;;24.85;18.15;;;16.80;69.90;;;;;;5103995;28;20055;-62
2022/03/23 11:57:48;;;;;;;21.67;16.42;;;16.90;70.90;;;;;;5099786;28;20032;-62
2022/03/23 12:00:18;;;;;;;26.10;16.55;;;17.10;71.90;;;;;;5094817;28;20044;-62
2022/03/23 12:02:45;;;;;;;26.00;16.85;;;17.20;68.40;;;;;;5095706;28;20082;-62
2022/03/23 12:05:29;;;;;;;19.48;13.43;;;17.30;68.70;;;;;;5095437;28;20040;-62
2022/03/23 12:07:56;;;;;;;22.30;15.27;;;17.40;67.20;;;;;;5094592;28;20075;-62
2022/03/23 12:10:22;;;;;;;24.15;15.30;;;17.40;66.50;;;;;;5094396;28;20058;-62
2022/03/23 12:12:48;;;;;;;22.63;13.40;;;17.50;64.70;;;;;;5095509;28;20040;-62
2022/03/23 12:15:23;;;;;;;23.70;13.18;;;17.50;65.20;;;;;;5094676;28;20043;-62
2022/03/23 12:17:55;;;;;;;24.60;13.95;;;17.50;63.90;;;;;;5094168;28;20072;-62
2022/03/23 12:20:37;;;;;;;26.33;15.05;;;17.60;63.90;;;;;;5093905;28;20076;-62
2022/03/23 12:23:38;;;;;;;23.33;14.15;;;17.70;65.40;;;;;;5093819;28;20043;-62
2022/03/23 12:26:23;;;;;;;20.02;12.68;;;17.70;63.00;;;;;;5095329;28;20388;-62
2022/03/23 12:28:57;;;;;;;21.73;12.30;;;17.60;63.70;;;;;;5093150;28;20048;-62
2022/03/23 12:31:38;;;;;;;19.60;11.38;;;17.50;63.70;;;;;;5095020;28;20040;-62
2022/03/23 12:34:20;;;;;;;18.17;12.20;;;17.60;62.40;;;;;;5095152;28;20044;-62
2022/03/23 12:36:57;;;;;;;20.40;11.68;;;17.60;60.30;;;;;;5094084;28;20055;-62
2022/03/23 12:39:26;;;;;;;18.25;11.13;;;17.40;61.20;;;;;;5093391;28;20047;-62
2022/03/23 12:41:53;;;;;;;18.95;11.57;;;17.60;60.00;;;;;;5109153;28;21922;-62
2022/03/23 12:44:28;;;;;;;18.58;10.38;;;17.60;60.20;;;;;;5104533;28;20036;-62
2022/03/23 12:46:54;;;;;;;17.02;10.55;;;17.60;60.50;;;;;;5099937;28;20483;-62
2022/03/23 12:58:25;;;;;;;16.80;10.68;;;17.80;59.00;;;;;;5094208;28;20044;-62
2022/03/23 13:00:54;;;;;;;18.60;10.35;;;17.80;59.20;;;;;;5110264;28;20128;-62
2022/03/23 13:03:19;;;;;;;21.77;11.98;;;17.90;58.00;;;;;;5102038;28;20106;-62
2022/03/23 13:05:54;;;;;;;18.38;11.55;;;17.90;58.00;;;;;;5111311;28;20118;-62
2022/03/23 13:08:38;;;;;;;;;;;18.00;58.10;;;;;;5102539;28;20046;-62
2022/03/23 13:11:09;;;;;;;18.75;11.68;;;17.90;60.40;;;;;;5094732;28;19962;-62
2022/03/23 13:13:36;;;;;;;18.42;9.88;;;18.00;57.90;;;;;;5109058;28;20484;-62